Time;durP1;ratioP1;P1;durP2;ratioP2;P2;SDS_P1;SDS_P2;PMS_P1;PMS_P2;Temp;Humidity;BMP_temperature;BMP_pressure;BME280_temperature;BME280_humidity;BME280_pressure;Samples;Min_cycle;Max_cycle;Signal;HPM_P1;HPM_P2
2023/12/27 00:01:29;;;;;;;8.80;2.05;;;4.00;99.90;;;;;;5092135;28;20055;-80
2023/12/27 00:03:55;;;;;;;10.02;2.10;;;3.90;99.90;;;;;;5092023;28;20119;-80
2023/12/27 00:06:20;;;;;;;7.35;1.88;;;3.90;99.90;;;;;;5118227;27;20115;-80
2023/12/27 00:08:46;;;;;;;8.68;1.60;;;3.90;99.90;;;;;;5106860;27;20514;-79
2023/12/27 00:11:16;;;;;;;7.90;1.50;;;3.90;99.90;;;;;;5127260;27;20404;-79
2023/12/27 00:13:41;;;;;;;5.55;1.50;;;3.90;99.90;;;;;;5121131;27;20115;-80
2023/12/27 00:16:07;;;;;;;9.18;1.73;;;3.90;99.90;;;;;;5093915;28;20102;-80
2023/12/27 00:18:32;;;;;;;8.48;1.60;;;3.90;99.90;;;;;;5144280;27;20046;-80
2023/12/27 00:20:58;;;;;;;7.10;1.83;;;3.80;99.90;;;;;;5129203;27;20050;-79
2023/12/27 00:23:24;;;;;;;7.97;1.55;;;3.80;99.90;;;;;;5094976;28;20554;-80
2023/12/27 00:25:49;;;;;;;6.47;1.90;;;3.70;99.90;;;;;;5139578;27;20036;-79
2023/12/27 00:28:15;;;;;;;6.55;1.50;;;3.90;99.90;;;;;;5131650;27;20054;-81
2023/12/27 00:30:40;;;;;;;9.38;1.60;;;3.70;99.90;;;;;;5130180;27;20123;-79
2023/12/27 00:33:06;;;;;;;7.65;1.90;;;3.70;99.90;;;;;;5109147;27;20123;-80
2023/12/27 00:35:32;;;;;;;6.50;1.55;;;3.70;99.90;;;;;;5117569;27;20508;-80
2023/12/27 00:37:57;;;;;;;6.50;1.55;;;3.70;99.90;;;;;;5141710;27;20036;-79
2023/12/27 00:40:23;;;;;;;5.32;1.42;;;3.70;99.90;;;;;;5083191;28;20036;-79
2023/12/27 00:42:48;;;;;;;7.25;1.55;;;3.60;99.90;;;;;;5112279;27;20039;-80
2023/12/27 00:45:14;;;;;;;4.43;1.60;;;3.60;99.90;;;;;;5126117;27;20040;-79
2023/12/27 00:47:45;;;;;;;7.80;1.70;;;3.60;99.90;;;;;;5098060;28;20466;-79
2023/12/27 00:50:11;;;;;;;9.73;1.98;;;3.60;99.90;;;;;;5136950;27;20076;-80
2023/12/27 00:52:36;;;;;;;4.70;1.30;;;3.60;99.90;;;;;;5104763;28;20408;-79
2023/12/27 00:55:03;;;;;;;5.53;1.30;;;3.50;99.90;;;;;;5110395;27;20040;-79
2023/12/27 00:57:28;;;;;;;6.47;2.10;;;3.50;99.90;;;;;;5118886;27;20043;-79
2023/12/27 00:59:54;;;;;;;6.30;1.73;;;3.50;99.90;;;;;;5115631;28;20051;-80
2023/12/27 01:02:19;;;;;;;6.32;1.35;;;3.60;99.90;;;;;;5102250;28;20047;-80
2023/12/27 01:04:45;;;;;;;5.53;1.40;;;3.50;99.90;;;;;;5093982;28;20114;-80
2023/12/27 01:07:10;;;;;;;6.53;1.40;;;3.50;99.90;;;;;;5095466;28;20039;-79
2023/12/27 01:09:36;;;;;;;5.68;1.58;;;3.60;99.90;;;;;;5111333;28;20040;-79
2023/12/27 01:12:02;;;;;;;4.28;1.30;;;3.50;99.90;;;;;;5129384;28;20127;-79
2023/12/27 01:14:27;;;;;;;6.75;1.45;;;3.40;99.90;;;;;;5143956;27;20397;-79
2023/12/27 01:16:53;;;;;;;7.65;1.33;;;3.40;99.90;;;;;;5111230;28;20476;-79
2023/12/27 01:19:19;;;;;;;9.00;1.67;;;3.40;99.90;;;;;;5094693;28;20040;-80
2023/12/27 01:21:45;;;;;;;4.47;1.30;;;3.40;99.90;;;;;;5128684;27;20044;-79
2023/12/27 01:24:11;;;;;;;9.25;1.70;;;3.30;99.90;;;;;;5094065;28;20035;-79
2023/12/27 01:26:36;;;;;;;11.57;1.70;;;3.40;99.90;;;;;;5094233;28;20050;-79
2023/12/27 01:29:02;;;;;;;6.00;1.48;;;3.30;99.90;;;;;;5111432;28;20047;-79
2023/12/27 01:31:28;;;;;;;6.28;1.65;;;3.40;99.90;;;;;;5095030;28;20046;-79
2023/12/27 01:33:53;;;;;;;6.28;1.50;;;3.30;99.90;;;;;;5129112;28;20039;-79
2023/12/27 01:36:20;;;;;;;7.95;1.90;;;3.30;99.90;;;;;;5094309;28;20040;-79
2023/12/27 01:38:46;;;;;;;7.93;1.58;;;3.30;99.90;;;;;;5129119;28;20606;-79
2023/12/27 01:41:11;;;;;;;7.82;1.55;;;3.30;99.90;;;;;;5111286;28;20126;-79
2023/12/27 01:43:37;;;;;;;9.48;2.47;;;3.20;99.90;;;;;;5111084;28;20122;-79
2023/12/27 01:46:03;;;;;;;6.43;1.75;;;3.20;99.90;;;;;;5111366;27;20496;-81
2023/12/27 01:48:30;;;;;;;9.52;1.80;;;3.20;99.90;;;;;;5093654;28;20040;-80
2023/12/27 01:50:58;;;;;;;11.18;1.85;;;3.20;99.90;;;;;;5125301;27;20419;-79
2023/12/27 01:53:24;;;;;;;9.23;1.40;;;3.20;99.90;;;;;;5129437;27;20085;-80
2023/12/27 01:55:51;;;;;;;7.63;1.73;;;3.20;99.90;;;;;;5131928;27;20050;-80
2023/12/27 01:58:17;;;;;;;7.25;1.75;;;3.20;99.90;;;;;;5114511;27;20096;-79
2023/12/27 02:00:45;;;;;;;6.20;1.70;;;3.20;99.90;;;;;;5116093;28;20449;-79
2023/12/27 02:03:11;;;;;;;7.35;1.95;;;3.20;99.90;;;;;;5097437;28;20502;-79
2023/12/27 02:05:38;;;;;;;7.13;1.60;;;3.20;99.90;;;;;;5097915;28;20071;-79
2023/12/27 02:08:04;;;;;;;8.98;1.75;;;3.10;99.90;;;;;;5114258;27;20035;-79
2023/12/27 02:10:31;;;;;;;9.55;1.65;;;3.10;99.90;;;;;;5098556;28;20100;-79
2023/12/27 02:13:03;;;;;;;7.57;1.70;;;3.10;99.90;;;;;;5096173;28;20066;-79
2023/12/27 02:15:28;;;;;;;10.38;1.70;;;3.20;99.90;;;;;;5099058;28;20036;-79
2023/12/27 02:17:55;;;;;;;4.45;1.27;;;3.20;99.90;;;;;;5132564;27;20035;-79
2023/12/27 02:20:22;;;;;;;4.22;1.40;;;3.10;99.90;;;;;;5096329;28;20043;-79
2023/12/27 02:22:50;;;;;;;6.22;1.70;;;3.10;99.90;;;;;;5115128;28;20084;-79
2023/12/27 02:25:16;;;;;;;7.00;1.80;;;3.10;99.90;;;;;;5112852;28;20035;-79
2023/12/27 02:27:42;;;;;;;9.95;2.15;;;3.10;99.90;;;;;;5097999;28;20047;-79
2023/12/27 02:30:15;;;;;;;11.80;1.73;;;3.10;99.90;;;;;;5113944;28;20044;-79
2023/12/27 02:32:41;;;;;;;7.63;2.05;;;3.10;99.90;;;;;;5115004;28;20032;-79
2023/12/27 02:35:07;;;;;;;8.10;2.10;;;3.10;99.90;;;;;;5111328;27;20452;-79
2023/12/27 02:37:32;;;;;;;7.45;1.50;;;3.00;99.90;;;;;;5112968;28;20035;-79
2023/12/27 02:39:59;;;;;;;10.43;1.77;;;3.10;99.90;;;;;;5098154;28;20502;-79
2023/12/27 02:42:24;;;;;;;6.95;1.80;;;3.00;99.90;;;;;;5097004;28;20097;-79
2023/12/27 02:44:50;;;;;;;8.13;2.00;;;3.00;99.90;;;;;;5095457;28;20520;-79
2023/12/27 02:47:15;;;;;;;5.88;1.42;;;3.00;99.90;;;;;;5097911;28;20391;-79
2023/12/27 02:49:41;;;;;;;7.93;1.65;;;3.00;99.90;;;;;;5095846;28;20126;-79
2023/12/27 02:52:07;;;;;;;9.18;2.08;;;3.00;99.90;;;;;;5097617;28;20123;-79
2023/12/27 02:54:33;;;;;;;8.90;2.03;;;2.90;99.90;;;;;;5095683;28;20036;-79
2023/12/27 02:56:58;;;;;;;8.10;1.88;;;2.90;99.90;;;;;;5097446;28;20047;-79
2023/12/27 02:59:24;;;;;;;5.05;1.52;;;2.90;99.90;;;;;;5097346;28;20438;-79
2023/12/27 03:01:50;;;;;;;8.05;1.85;;;2.90;99.90;;;;;;5111827;27;20055;-79
2023/12/27 03:04:16;;;;;;;8.07;1.95;;;2.90;99.90;;;;;;5097438;28;20118;-79
2023/12/27 03:06:42;;;;;;;8.05;1.80;;;2.90;99.90;;;;;;5093907;28;20563;-79
2023/12/27 03:09:08;;;;;;;7.97;1.80;;;2.90;99.90;;;;;;5096622;28;20565;-79
2023/12/27 03:11:33;;;;;;;7.50;1.92;;;3.00;99.90;;;;;;5130815;27;20052;-79
2023/12/27 03:13:59;;;;;;;10.07;2.13;;;3.00;99.90;;;;;;5097138;28;20043;-79
2023/12/27 03:16:26;;;;;;;5.38;1.52;;;2.90;99.90;;;;;;5112183;28;20035;-79
2023/12/27 03:18:51;;;;;;;7.97;2.15;;;3.00;99.90;;;;;;5114112;28;20407;-79
2023/12/27 03:21:17;;;;;;;8.55;2.80;;;3.00;99.90;;;;;;5112932;27;20065;-80
2023/12/27 03:23:43;;;;;;;9.07;2.10;;;3.00;99.90;;;;;;5130670;27;20050;-79
2023/12/27 03:26:09;;;;;;;5.95;1.70;;;2.90;99.90;;;;;;5145734;27;20050;-79
2023/12/27 03:28:35;;;;;;;8.38;1.85;;;3.00;99.90;;;;;;5094984;28;20407;-79
2023/12/27 03:31:00;;;;;;;9.68;2.20;;;2.90;99.90;;;;;;5095920;28;20027;-79
2023/12/27 03:33:26;;;;;;;9.73;1.80;;;2.90;99.90;;;;;;5096820;28;20038;-79
2023/12/27 03:35:52;;;;;;;6.78;1.98;;;3.00;99.90;;;;;;5094118;28;20081;-79
2023/12/27 03:38:17;;;;;;;7.65;2.25;;;2.90;99.90;;;;;;5111631;28;20039;-79
2023/12/27 03:40:43;;;;;;;6.45;2.03;;;2.90;99.90;;;;;;5090923;28;20032;-79
2023/12/27 03:43:09;;;;;;;8.63;2.60;;;2.90;99.90;;;;;;5092900;28;20040;-79
2023/12/27 03:45:36;;;;;;;6.90;2.10;;;3.00;99.90;;;;;;5117785;27;20063;-79
2023/12/27 03:48:01;;;;;;;8.00;2.42;;;3.00;99.90;;;;;;5094845;27;20082;-79
2023/12/27 03:50:27;;;;;;;7.72;2.00;;;3.00;99.90;;;;;;5113073;28;20089;-79
2023/12/27 03:52:53;;;;;;;12.48;3.38;;;3.00;99.90;;;;;;5112436;28;20042;-79
2023/12/27 03:55:18;;;;;;;10.35;2.55;;;3.00;99.90;;;;;;5096088;28;20501;-79
2023/12/27 03:57:44;;;;;;;8.35;2.30;;;3.00;99.90;;;;;;5120079;27;20033;-78
2023/12/27 04:00:10;;;;;;;6.38;2.20;;;3.00;99.90;;;;;;5128574;27;20066;-79
2023/12/27 04:02:36;;;;;;;10.75;2.83;;;3.00;99.90;;;;;;5096195;28;20043;-79
2023/12/27 04:05:01;;;;;;;8.90;2.30;;;3.00;99.90;;;;;;5094828;28;20039;-79
2023/12/27 04:07:29;;;;;;;9.43;2.60;;;3.00;99.90;;;;;;5111246;27;20047;-79
2023/12/27 04:09:55;;;;;;;6.03;2.67;;;3.00;99.90;;;;;;5144823;27;20071;-79
2023/12/27 04:12:21;;;;;;;9.07;2.40;;;2.90;99.90;;;;;;5130016;27;20070;-79
2023/12/27 04:14:48;;;;;;;10.63;2.40;;;2.90;99.90;;;;;;5110497;27;20058;-79
2023/12/27 04:17:13;;;;;;;7.43;2.03;;;2.90;99.90;;;;;;5112893;28;20039;-79
2023/12/27 04:19:39;;;;;;;9.40;2.83;;;2.90;99.90;;;;;;5094859;28;20142;-78
2023/12/27 04:22:05;;;;;;;8.80;2.38;;;2.90;99.90;;;;;;5127518;27;20440;-79
2023/12/27 04:24:31;;;;;;;8.23;2.22;;;2.90;99.90;;;;;;5145967;27;20126;-79
2023/12/27 04:26:56;;;;;;;7.22;2.97;;;2.90;99.90;;;;;;5127827;27;20126;-79
2023/12/27 04:29:22;;;;;;;7.15;2.22;;;2.90;99.90;;;;;;5094985;28;20043;-79
2023/12/27 04:31:47;;;;;;;7.90;2.28;;;2.90;99.90;;;;;;5126565;27;20039;-79
2023/12/27 04:34:13;;;;;;;15.60;3.30;;;2.80;99.90;;;;;;5112905;28;20039;-79
2023/12/27 04:36:39;;;;;;;10.10;2.95;;;2.90;99.90;;;;;;5094401;28;20534;-79
2023/12/27 04:39:06;;;;;;;9.82;2.70;;;2.80;99.90;;;;;;5110216;28;20035;-79
2023/12/27 04:41:32;;;;;;;7.28;2.30;;;2.80;99.90;;;;;;5127517;27;20031;-79
2023/12/27 04:43:57;;;;;;;11.30;2.58;;;2.80;99.90;;;;;;5110666;28;20480;-79
2023/12/27 04:46:23;;;;;;;10.60;2.80;;;2.90;99.90;;;;;;5111791;28;20032;-79
2023/12/27 04:48:48;;;;;;;10.02;3.10;;;2.80;99.90;;;;;;5092558;28;20480;-78
2023/12/27 04:51:14;;;;;;;10.43;2.80;;;2.90;99.90;;;;;;5111774;28;20040;-79
2023/12/27 04:53:40;;;;;;;9.13;2.85;;;2.80;99.90;;;;;;5093536;28;20040;-79
2023/12/27 04:56:06;;;;;;;9.40;3.05;;;2.90;99.90;;;;;;5111612;28;20024;-78
2023/12/27 04:58:35;;;;;;;8.27;2.80;;;2.80;99.90;;;;;;5144035;27;20124;-78
2023/12/27 05:01:04;;;;;;;9.07;2.70;;;2.80;99.90;;;;;;5145215;27;20401;-79
2023/12/27 05:03:30;;;;;;;12.77;3.22;;;2.80;99.90;;;;;;5110471;28;20436;-79
2023/12/27 05:05:56;;;;;;;7.68;2.85;;;2.80;99.90;;;;;;5111503;28;20042;-78
2023/12/27 05:08:21;;;;;;;8.27;2.80;;;2.90;99.90;;;;;;5094052;28;20450;-79
2023/12/27 05:10:47;;;;;;;9.45;3.42;;;2.90;99.90;;;;;;5094751;28;20061;-79
2023/12/27 05:13:12;;;;;;;9.00;3.10;;;2.90;99.90;;;;;;5109876;28;20031;-79
2023/12/27 05:15:38;;;;;;;13.13;3.58;;;3.00;99.90;;;;;;5112215;28;20032;-79
2023/12/27 05:18:04;;;;;;;9.05;3.28;;;3.00;99.90;;;;;;5094448;28;20031;-79
2023/12/27 05:20:29;;;;;;;10.57;3.42;;;3.00;99.90;;;;;;5093419;28;20475;-79
2023/12/27 05:22:55;;;;;;;8.57;3.13;;;3.00;99.90;;;;;;5148034;27;20480;-79
2023/12/27 05:25:20;;;;;;;10.50;3.15;;;3.00;99.90;;;;;;5147099;27;20035;-79
2023/12/27 05:27:46;;;;;;;8.95;3.10;;;3.00;99.90;;;;;;5133342;27;20036;-79
2023/12/27 05:30:12;;;;;;;10.00;3.22;;;3.00;99.90;;;;;;5129658;27;20036;-79
2023/12/27 05:32:38;;;;;;;10.95;3.13;;;3.00;99.90;;;;;;5133241;27;20127;-79
2023/12/27 05:35:04;;;;;;;10.35;3.42;;;3.00;99.90;;;;;;5148196;27;20068;-79
2023/12/27 05:37:29;;;;;;;7.35;3.03;;;3.00;99.90;;;;;;5099010;28;20046;-79
2023/12/27 05:39:55;;;;;;;10.60;3.05;;;3.00;99.90;;;;;;5098314;28;20432;-80
2023/12/27 05:42:20;;;;;;;8.90;2.92;;;3.00;99.90;;;;;;5131994;27;20122;-79
2023/12/27 05:44:46;;;;;;;9.52;2.97;;;3.10;99.90;;;;;;5133523;27;20047;-79
2023/12/27 05:47:12;;;;;;;13.98;3.30;;;3.00;99.90;;;;;;5130643;27;20035;-79
2023/12/27 05:49:37;;;;;;;8.98;2.58;;;3.00;99.90;;;;;;5097751;27;20040;-79
2023/12/27 05:52:04;;;;;;;8.35;2.75;;;3.00;99.90;;;;;;5129560;27;20032;-79
2023/12/27 05:54:29;;;;;;;9.63;2.97;;;3.00;99.90;;;;;;5114733;28;20039;-79
2023/12/27 05:56:55;;;;;;;5.85;2.60;;;3.00;99.90;;;;;;5129503;27;20391;-79
2023/12/27 05:59:20;;;;;;;8.63;3.13;;;3.00;99.90;;;;;;5130882;27;20055;-79
2023/12/27 06:01:53;;;;;;;8.25;3.03;;;3.00;99.90;;;;;;5112229;28;20109;-79
2023/12/27 06:04:18;;;;;;;;;;;3.00;99.90;;;;;;5127465;27;20036;-79
2023/12/27 06:06:44;;;;;;;11.27;3.15;;;2.90;99.90;;;;;;5096912;28;20382;-79
2023/12/27 06:09:10;;;;;;;6.88;2.58;;;2.90;99.90;;;;;;5131232;27;20035;-79
2023/12/27 06:11:37;;;;;;;6.85;2.50;;;3.00;99.90;;;;;;5097701;28;20118;-79
2023/12/27 06:14:03;;;;;;;10.25;2.80;;;3.00;99.90;;;;;;5130518;27;20032;-79
2023/12/27 06:16:29;;;;;;;9.48;2.83;;;3.10;99.90;;;;;;5098275;28;20039;-79
2023/12/27 06:18:56;;;;;;;6.93;2.70;;;3.10;99.90;;;;;;5114239;27;20460;-79
2023/12/27 06:21:22;;;;;;;10.45;3.15;;;3.10;99.90;;;;;;5096567;28;20419;-79
2023/12/27 06:23:48;;;;;;;9.02;2.35;;;3.10;99.90;;;;;;5098160;28;20039;-79
2023/12/27 06:26:13;;;;;;;8.18;2.50;;;3.10;99.90;;;;;;5097564;28;20097;-79
2023/12/27 06:28:42;;;;;;;9.52;3.38;;;3.10;99.90;;;;;;5094959;28;20666;-79
2023/12/27 06:31:08;;;;;;;9.48;3.20;;;3.10;99.90;;;;;;5129674;27;20537;-79
2023/12/27 06:33:34;;;;;;;12.15;2.97;;;3.10;99.90;;;;;;5114423;28;20123;-79
2023/12/27 06:36:00;;;;;;;12.15;3.40;;;3.20;99.90;;;;;;5096711;28;20403;-79
2023/12/27 06:38:26;;;;;;;9.43;3.22;;;3.20;99.90;;;;;;5096351;28;20043;-79
2023/12/27 06:40:52;;;;;;;8.05;2.85;;;3.20;99.90;;;;;;5097377;28;20528;-79
2023/12/27 06:43:19;;;;;;;9.80;2.58;;;3.20;99.90;;;;;;5128296;27;20031;-79
2023/12/27 06:45:45;;;;;;;15.15;2.88;;;3.30;99.90;;;;;;5148463;27;20158;-79
2023/12/27 06:48:10;;;;;;;9.80;2.60;;;3.30;99.90;;;;;;5114538;28;20500;-79
2023/12/27 06:50:36;;;;;;;9.55;2.72;;;3.30;99.90;;;;;;5112013;27;20031;-79
2023/12/27 06:53:02;;;;;;;10.52;2.45;;;3.30;99.90;;;;;;5131674;27;20038;-79
2023/12/27 06:55:28;;;;;;;12.10;3.67;;;3.30;99.90;;;;;;5113277;27;20399;-79
2023/12/27 06:57:53;;;;;;;10.35;2.88;;;3.30;99.90;;;;;;5112261;28;20568;-79
2023/12/27 07:00:19;;;;;;;10.13;2.83;;;3.40;99.90;;;;;;5095849;28;20043;-79
2023/12/27 07:02:45;;;;;;;9.88;3.10;;;3.40;99.90;;;;;;5114292;28;20035;-79
2023/12/27 07:05:12;;;;;;;7.95;3.08;;;3.50;99.90;;;;;;5112806;27;20036;-79
2023/12/27 07:07:37;;;;;;;9.38;3.00;;;3.50;99.90;;;;;;5114352;28;20043;-79
2023/12/27 07:10:04;;;;;;;11.13;3.20;;;3.60;99.90;;;;;;5112436;28;20372;-79
2023/12/27 07:12:30;;;;;;;9.45;3.45;;;3.60;99.90;;;;;;5114873;27;20051;-79
2023/12/27 07:14:57;;;;;;;13.40;3.60;;;3.60;99.90;;;;;;5148529;27;20081;-79
2023/12/27 07:17:23;;;;;;;8.32;3.50;;;3.60;99.90;;;;;;5129218;27;20039;-79
2023/12/27 07:19:49;;;;;;;8.57;3.78;;;3.60;99.90;;;;;;5132122;27;20036;-79
2023/12/27 07:22:15;;;;;;;10.60;3.67;;;3.60;99.90;;;;;;5146298;27;20084;-79
2023/12/27 07:24:40;;;;;;;10.00;3.72;;;3.60;99.90;;;;;;5097384;28;20122;-80
2023/12/27 07:27:07;;;;;;;13.25;4.28;;;3.60;99.90;;;;;;5112151;28;20035;-79
2023/12/27 07:29:36;;;;;;;12.88;4.22;;;3.60;99.90;;;;;;5113212;27;20088;-79
2023/12/27 07:32:05;;;;;;;11.88;4.50;;;3.60;99.90;;;;;;5095832;27;20503;-79
2023/12/27 07:34:32;;;;;;;8.35;3.97;;;3.60;99.90;;;;;;5146735;27;20066;-79
2023/12/27 07:36:58;;;;;;;9.18;4.22;;;3.60;99.90;;;;;;5113223;28;20027;-79
2023/12/27 07:39:23;;;;;;;10.93;4.50;;;3.60;99.90;;;;;;5112026;28;20441;-79
2023/12/27 07:41:49;;;;;;;11.38;4.45;;;3.70;99.90;;;;;;5114732;27;20152;-79
2023/12/27 07:44:16;;;;;;;9.15;4.55;;;3.70;99.90;;;;;;5144336;27;20096;-79
2023/12/27 07:46:45;;;;;;;12.43;4.55;;;3.70;99.90;;;;;;5147101;27;20044;-79
2023/12/27 07:49:10;;;;;;;11.75;4.47;;;3.70;99.90;;;;;;5112226;27;20048;-80
2023/12/27 07:51:36;;;;;;;10.43;4.60;;;3.70;99.90;;;;;;5127934;27;20089;-79
2023/12/27 07:54:02;;;;;;;12.55;5.07;;;3.80;99.90;;;;;;5086746;28;20035;-79
2023/12/27 07:56:28;;;;;;;9.70;4.63;;;3.80;99.90;;;;;;5111804;28;20039;-79
2023/12/27 07:58:54;;;;;;;12.05;5.05;;;3.70;99.90;;;;;;5147010;27;20511;-79
2023/12/27 08:01:20;;;;;;;11.27;4.75;;;3.80;99.90;;;;;;5133257;27;20048;-79
2023/12/27 08:03:46;;;;;;;11.40;5.70;;;3.80;99.90;;;;;;5129246;27;20046;-79
2023/12/27 08:06:12;;;;;;;13.18;5.20;;;3.80;99.90;;;;;;5096199;28;20039;-79
2023/12/27 08:08:38;;;;;;;13.30;5.10;;;3.90;99.90;;;;;;5112656;28;20404;-79
2023/12/27 08:11:04;;;;;;;10.55;5.30;;;3.90;99.90;;;;;;5093461;27;20032;-79
2023/12/27 08:13:31;;;;;;;12.77;4.75;;;3.90;99.90;;;;;;5111832;28;20388;-79
2023/12/27 08:15:57;;;;;;;11.30;4.35;;;3.90;99.90;;;;;;5112438;27;20399;-79
2023/12/27 08:18:22;;;;;;;13.13;4.45;;;4.00;99.90;;;;;;5130506;27;20034;-79
2023/12/27 08:20:48;;;;;;;11.52;4.95;;;4.00;99.90;;;;;;5109073;28;20067;-79
2023/12/27 08:23:16;;;;;;;11.85;4.43;;;3.90;99.90;;;;;;5110871;28;20035;-79
2023/12/27 08:25:43;;;;;;;13.27;4.32;;;3.90;99.90;;;;;;5113119;28;20036;-79
2023/12/27 08:28:08;;;;;;;10.27;4.65;;;3.90;99.90;;;;;;5094714;28;20036;-79
2023/12/27 08:30:34;;;;;;;9.07;4.07;;;4.00;99.90;;;;;;5091965;28;20445;-79
2023/12/27 08:33:00;;;;;;;10.68;4.80;;;4.00;99.90;;;;;;5122087;27;20398;-80
2023/12/27 08:35:26;;;;;;;10.65;4.80;;;4.00;99.90;;;;;;5103936;27;20039;-79
2023/12/27 08:37:52;;;;;;;11.38;3.70;;;4.00;99.90;;;;;;5118693;27;20487;-79
2023/12/27 08:40:19;;;;;;;10.60;4.15;;;4.00;99.90;;;;;;5131279;27;20115;-79
2023/12/27 08:42:45;;;;;;;9.95;4.65;;;4.00;99.90;;;;;;5124185;27;20032;-79
2023/12/27 08:45:11;;;;;;;9.45;4.10;;;4.10;99.90;;;;;;5095004;28;20490;-79
2023/12/27 08:47:37;;;;;;;10.40;3.90;;;4.10;99.90;;;;;;5112072;28;20050;-79
2023/12/27 08:50:04;;;;;;;12.48;4.28;;;4.10;99.90;;;;;;5094850;28;20116;-79
2023/12/27 08:52:30;;;;;;;13.15;3.75;;;4.10;99.90;;;;;;5120679;27;20442;-79
2023/12/27 08:54:56;;;;;;;14.30;4.50;;;4.10;99.90;;;;;;5092369;28;20023;-79
2023/12/27 08:57:21;;;;;;;13.38;4.28;;;4.20;99.90;;;;;;5094400;28;20039;-79
2023/12/27 08:59:47;;;;;;;14.10;4.00;;;4.20;99.90;;;;;;5105700;28;20047;-79
2023/12/27 09:02:12;;;;;;;12.27;3.67;;;4.40;99.90;;;;;;5112228;28;20040;-79
2023/12/27 09:04:38;;;;;;;13.60;4.03;;;4.30;99.90;;;;;;5095242;28;20403;-79
2023/12/27 09:07:04;;;;;;;9.63;3.60;;;4.30;99.90;;;;;;5094614;28;20114;-79
2023/12/27 09:09:30;;;;;;;9.65;3.85;;;4.20;99.90;;;;;;5112102;28;20052;-79
2023/12/27 09:11:56;;;;;;;14.02;4.00;;;4.30;99.90;;;;;;5146665;27;20038;-79
2023/12/27 09:14:22;;;;;;;15.27;4.10;;;4.30;99.90;;;;;;5121108;28;20044;-79
2023/12/27 09:16:47;;;;;;;11.77;3.80;;;4.40;99.90;;;;;;5108710;28;20043;-79
2023/12/27 09:19:13;;;;;;;9.88;3.60;;;4.40;99.90;;;;;;5111737;28;20036;-80
2023/12/27 09:21:45;;;;;;;11.80;3.45;;;4.40;99.90;;;;;;5091227;28;20051;-79
2023/12/27 09:24:11;;;;;;;12.15;3.63;;;4.40;99.90;;;;;;5094476;28;20047;-79
2023/12/27 09:26:37;;;;;;;11.45;4.18;;;4.40;99.90;;;;;;5093501;28;20036;-79
2023/12/27 09:29:03;;;;;;;7.72;2.90;;;4.40;99.90;;;;;;5111689;28;20036;-79
2023/12/27 09:31:30;;;;;;;9.75;3.00;;;4.50;99.90;;;;;;5128547;28;20044;-79
2023/12/27 09:33:59;;;;;;;9.77;3.45;;;4.50;99.90;;;;;;5094112;28;20040;-79
2023/12/27 09:36:25;;;;;;;9.57;3.20;;;4.60;99.90;;;;;;5103860;27;20047;-79
2023/12/27 09:38:51;;;;;;;10.20;3.40;;;4.60;99.90;;;;;;5102672;28;20042;-79
2023/12/27 09:41:17;;;;;;;11.95;4.85;;;4.60;99.90;;;;;;5093085;28;20404;-80
2023/12/27 09:43:45;;;;;;;13.45;3.60;;;4.70;99.90;;;;;;5088250;28;20499;-79
2023/12/27 09:46:13;;;;;;;10.38;3.78;;;4.70;99.90;;;;;;5128313;28;20039;-79
2023/12/27 09:48:42;;;;;;;10.20;3.67;;;4.80;99.90;;;;;;5095418;28;20051;-79
2023/12/27 09:51:11;;;;;;;11.63;4.43;;;4.80;99.90;;;;;;5132277;28;20035;-80
2023/12/27 09:53:39;;;;;;;12.77;4.50;;;4.80;99.90;;;;;;5089507;28;20035;-79
2023/12/27 09:56:07;;;;;;;13.77;5.10;;;4.90;99.90;;;;;;5113927;27;20039;-79
2023/12/27 09:58:35;;;;;;;8.13;3.45;;;4.90;99.90;;;;;;5123487;27;20499;-79
2023/12/27 10:01:02;;;;;;;12.13;4.28;;;4.90;99.90;;;;;;5074245;28;20047;-79
2023/12/27 10:03:36;;;;;;;12.60;4.68;;;4.90;99.90;;;;;;5115761;27;20043;-79
2023/12/27 10:06:32;;;;;;;12.77;3.90;;;5.00;99.90;;;;;;5130072;27;20500;-79
2023/12/27 10:08:58;;;;;;;11.52;4.00;;;5.00;99.90;;;;;;5078355;27;20051;-79
2023/12/27 10:11:25;;;;;;;12.18;3.80;;;5.00;99.90;;;;;;5111817;27;20043;-79
2023/12/27 10:13:51;;;;;;;12.00;4.32;;;5.00;99.90;;;;;;5092025;27;20111;-79
2023/12/27 10:16:17;;;;;;;11.85;4.18;;;5.10;99.90;;;;;;5110734;27;20484;-79
2023/12/27 10:18:46;;;;;;;11.02;4.25;;;5.10;99.90;;;;;;5083558;27;20080;-79
2023/12/27 10:21:13;;;;;;;10.02;3.15;;;5.10;99.90;;;;;;5113189;27;20035;-79
2023/12/27 10:23:38;;;;;;;16.92;4.93;;;5.10;99.90;;;;;;5115393;27;20039;-79
2023/12/27 10:26:05;;;;;;;9.25;4.03;;;5.10;99.90;;;;;;5135484;27;20041;-80
2023/12/27 10:28:31;;;;;;;10.55;4.47;;;5.20;99.90;;;;;;5112823;28;20043;-79
2023/12/27 10:30:56;;;;;;;12.20;4.45;;;5.20;99.90;;;;;;5105335;28;20035;-79
2023/12/27 10:33:23;;;;;;;11.82;4.35;;;5.20;99.90;;;;;;5105729;27;20484;-79
2023/12/27 10:35:49;;;;;;;11.90;4.25;;;5.20;99.90;;;;;;5094991;28;20045;-79
2023/12/27 10:38:15;;;;;;;15.18;5.30;;;5.20;99.90;;;;;;5113522;28;20037;-79
2023/12/27 10:40:41;;;;;;;13.70;5.13;;;5.20;99.90;;;;;;5145109;27;20118;-80
2023/12/27 10:43:08;;;;;;;13.77;4.78;;;5.20;99.90;;;;;;5112303;27;20044;-79
2023/12/27 10:45:35;;;;;;;10.85;4.55;;;5.30;99.90;;;;;;5122375;27;20086;-79
2023/12/27 10:48:04;;;;;;;16.77;5.03;;;5.30;99.90;;;;;;5152109;27;20488;-79
2023/12/27 10:50:31;;;;;;;12.23;4.18;;;5.40;99.90;;;;;;5112478;27;20076;-79
2023/12/27 10:53:06;;;;;;;13.23;5.07;;;5.50;99.90;;;;;;5114416;27;20088;-79
2023/12/27 10:55:33;;;;;;;10.00;4.75;;;5.50;99.90;;;;;;5118746;27;20035;-80
2023/12/27 10:58:00;;;;;;;14.20;5.13;;;5.50;99.90;;;;;;5131720;27;20448;-79
2023/12/27 11:00:28;;;;;;;12.45;4.35;;;5.50;99.90;;;;;;5114161;27;20081;-80
2023/12/27 11:02:55;;;;;;;12.25;4.82;;;5.50;99.90;;;;;;5090194;28;20455;-79
2023/12/27 11:05:22;;;;;;;12.95;5.07;;;5.60;99.90;;;;;;5130943;27;20039;-79
2023/12/27 11:07:50;;;;;;;13.25;5.60;;;5.50;99.90;;;;;;5152638;27;20119;-79
2023/12/27 11:10:16;;;;;;;10.40;4.22;;;5.50;99.90;;;;;;5115956;27;20079;-79
2023/12/27 11:12:47;;;;;;;13.65;4.63;;;5.60;99.90;;;;;;5116383;27;20482;-78
2023/12/27 11:15:18;;;;;;;13.70;4.88;;;5.70;99.90;;;;;;5153280;27;20556;-79
2023/12/27 11:17:45;;;;;;;16.50;5.13;;;5.70;99.90;;;;;;5110714;28;20044;-78
2023/12/27 11:20:12;;;;;;;12.63;4.28;;;5.70;99.90;;;;;;5109794;28;20074;-78
2023/12/27 11:22:45;;;;;;;14.10;4.72;;;5.70;99.90;;;;;;5132627;27;20047;-78
2023/12/27 11:25:11;;;;;;;14.38;5.30;;;5.80;99.90;;;;;;5127783;27;20508;-79
2023/12/27 11:27:37;;;;;;;9.73;3.67;;;5.80;99.90;;;;;;5141149;27;20084;-78
2023/12/27 11:30:08;;;;;;;10.05;5.00;;;5.80;99.90;;;;;;5101293;27;20404;-78
2023/12/27 11:32:36;;;;;;;11.00;4.38;;;5.80;99.90;;;;;;5111795;28;20498;-78
2023/12/27 11:35:02;;;;;;;14.23;4.65;;;5.80;99.90;;;;;;5112499;28;20080;-78
2023/12/27 11:37:27;;;;;;;13.30;5.18;;;5.80;99.90;;;;;;5112166;27;20417;-78
2023/12/27 11:39:53;;;;;;;11.85;4.85;;;5.90;99.90;;;;;;5094345;28;20060;-79
2023/12/27 11:42:21;;;;;;;11.75;4.80;;;5.80;99.90;;;;;;5141842;27;20153;-78
2023/12/27 11:44:48;;;;;;;13.75;5.93;;;5.80;99.90;;;;;;5109930;28;20035;-78
2023/12/27 11:47:17;;;;;;;12.77;5.72;;;5.80;99.90;;;;;;5093007;28;20072;-78
2023/12/27 11:50:13;;;;;;;13.63;5.05;;;5.80;99.90;;;;;;5132514;27;20407;-78
2023/12/27 11:52:49;;;;;;;14.10;5.93;;;5.80;99.90;;;;;;5111848;28;20203;-78
2023/12/27 11:55:19;;;;;;;13.25;6.53;;;5.80;99.90;;;;;;5112918;28;20039;-78
2023/12/27 11:57:45;;;;;;;10.65;4.70;;;5.90;99.90;;;;;;5145624;27;20063;-78
2023/12/27 12:00:24;;;;;;;12.75;4.55;;;5.90;99.90;;;;;;5104810;28;20078;-78
2023/12/27 12:02:57;;;;;;;10.45;3.83;;;6.00;99.90;;;;;;5147174;27;20072;-78
2023/12/27 12:05:39;;;;;;;9.52;5.22;;;5.90;99.90;;;;;;5145935;27;20125;-78
2023/12/27 12:08:25;;;;;;;7.43;3.88;;;5.90;99.90;;;;;;5146948;27;20047;-79
2023/12/27 12:11:07;;;;;;;14.20;6.57;;;6.00;99.90;;;;;;5094492;28;20042;-79
2023/12/27 12:13:33;;;;;;;11.00;4.43;;;5.90;99.90;;;;;;5144398;27;20067;-78
2023/12/27 12:15:59;;;;;;;10.27;5.22;;;6.00;99.90;;;;;;5143161;27;20074;-78
2023/12/27 12:18:26;;;;;;;12.75;5.70;;;6.00;99.90;;;;;;5103754;27;20551;-78
2023/12/27 12:20:52;;;;;;;12.52;5.50;;;6.00;99.90;;;;;;5129243;27;20050;-79
2023/12/27 12:23:18;;;;;;;7.30;3.78;;;5.90;99.90;;;;;;5093714;28;20081;-78
2023/12/27 12:25:44;;;;;;;9.48;4.47;;;6.00;99.90;;;;;;5128308;27;20039;-78
2023/12/27 12:28:10;;;;;;;12.05;6.28;;;6.00;99.90;;;;;;5116819;27;20039;-79
2023/12/27 12:30:36;;;;;;;8.70;4.22;;;6.10;99.90;;;;;;5125714;27;20039;-78
2023/12/27 12:33:04;;;;;;;7.95;4.55;;;6.10;99.90;;;;;;5107732;28;20441;-78
2023/12/27 12:35:29;;;;;;;8.88;4.78;;;6.10;99.90;;;;;;5111407;28;20108;-79
2023/12/27 12:37:55;;;;;;;10.93;5.53;;;6.00;99.90;;;;;;5110491;27;20495;-78
2023/12/27 12:40:21;;;;;;;10.85;4.95;;;6.00;99.90;;;;;;5104508;27;20428;-78
2023/12/27 12:42:47;;;;;;;12.02;5.65;;;6.10;99.90;;;;;;5127804;27;20039;-79
2023/12/27 12:45:13;;;;;;;10.05;5.18;;;6.20;99.90;;;;;;5094094;28;20460;-78
2023/12/27 12:47:39;;;;;;;10.80;5.82;;;6.10;99.90;;;;;;5112649;28;20109;-79
2023/12/27 12:50:05;;;;;;;9.50;4.18;;;6.20;99.90;;;;;;5088634;28;20511;-79